createdAt,value
2019-03-31T00:00:13.077Z,17.85
2019-03-31T00:02:43.833Z,17.77
2019-03-31T00:05:14.509Z,19.80
2019-03-31T00:07:45.288Z,17.75
2019-03-31T00:10:15.850Z,17.05
2019-03-31T00:12:46.512Z,19.37
2019-03-31T00:15:17.239Z,18.30
2019-03-31T00:17:47.957Z,18.55
2019-03-31T00:20:18.774Z,18.32
2019-03-31T00:22:49.697Z,16.02
2019-03-31T00:25:20.406Z,17.92
2019-03-31T00:27:51.163Z,17.17
2019-03-31T00:30:21.642Z,16.30
2019-03-31T00:32:52.348Z,16.67
2019-03-31T00:35:23.177Z,18.00
2019-03-31T00:37:54.000Z,18.67
2019-03-31T00:40:24.514Z,18.95
2019-03-31T00:42:55.258Z,19.17
2019-03-31T00:45:25.946Z,18.62
2019-03-31T00:47:56.781Z,16.37
2019-03-31T00:50:27.605Z,18.67
2019-03-31T00:52:58.375Z,19.37
2019-03-31T00:55:28.987Z,18.52
2019-03-31T00:57:59.852Z,19.10
2019-03-31T01:00:48.003Z,16.67
2019-03-31T01:03:19.265Z,16.62
2019-03-31T01:05:49.951Z,18.25
2019-03-31T01:08:20.569Z,18.12
2019-03-31T01:10:51.250Z,17.62
2019-03-31T01:13:21.945Z,16.67
2019-03-31T01:15:52.866Z,17.32
2019-03-31T01:18:23.836Z,16.77
2019-03-31T01:20:54.555Z,18.42
2019-03-31T01:23:25.322Z,18.07
2019-03-31T01:25:56.030Z,17.73
2019-03-31T01:28:26.819Z,17.98
2019-03-31T01:30:57.574Z,17.07
2019-03-31T01:33:28.238Z,17.73
2019-03-31T01:35:59.067Z,17.82
2019-03-31T01:38:29.603Z,17.75
2019-03-31T01:41:00.117Z,16.67
2019-03-31T01:43:30.668Z,18.07
2019-03-31T01:46:01.722Z,18.57
2019-03-31T01:48:32.516Z,17.80
2019-03-31T01:51:03.964Z,17.07
2019-03-31T01:53:34.676Z,16.77
2019-03-31T01:56:05.559Z,17.20
2019-03-31T01:58:36.288Z,18.50
2019-03-31T02:01:08.308Z,18.65
2019-03-31T02:03:38.798Z,17.25
2019-03-31T02:06:10.550Z,18.52
2019-03-31T02:08:41.471Z,18.48
2019-03-31T02:11:12.143Z,16.37
2019-03-31T02:13:42.958Z,19.25
2019-03-31T02:16:13.672Z,22.42
2019-03-31T02:18:44.492Z,22.93
2019-03-31T02:21:15.233Z,22.70
2019-03-31T02:23:46.975Z,19.45
2019-03-31T02:26:17.577Z,19.48
2019-03-31T02:28:48.073Z,20.77
2019-03-31T02:31:18.606Z,21.35
2019-03-31T02:33:49.469Z,20.02
2019-03-31T02:36:20.171Z,17.82
2019-03-31T02:38:50.975Z,17.73
2019-03-31T02:41:21.631Z,20.08
2019-03-31T02:43:52.449Z,19.40
2019-03-31T02:46:23.296Z,20.10
2019-03-31T02:48:53.837Z,20.20
2019-03-31T02:51:24.645Z,22.90
2019-03-31T02:53:55.728Z,20.75
2019-03-31T02:56:26.629Z,18.40
2019-03-31T02:58:57.331Z,18.85
2019-03-31T03:01:57.932Z,22.22
2019-03-31T03:04:28.456Z,20.55
2019-03-31T03:06:59.316Z,20.95
2019-03-31T03:09:30.003Z,20.77
2019-03-31T03:12:00.691Z,23.55
2019-03-31T03:14:32.759Z,23.05
2019-03-31T03:17:03.575Z,21.15
2019-03-31T03:19:34.365Z,22.35
2019-03-31T03:22:05.117Z,21.45
2019-03-31T03:24:35.859Z,21.90
2019-03-31T03:27:06.386Z,21.55
2019-03-31T03:29:36.872Z,22.50
2019-03-31T03:32:07.921Z,21.57
2019-03-31T03:34:38.755Z,20.35
2019-03-31T03:37:10.566Z,18.98
2019-03-31T03:39:41.375Z,22.85
2019-03-31T03:42:11.979Z,21.27
2019-03-31T03:44:42.787Z,21.65
2019-03-31T03:47:13.287Z,21.65
2019-03-31T03:49:44.118Z,23.38
2019-03-31T03:52:14.814Z,22.17
2019-03-31T03:54:45.489Z,21.33
2019-03-31T03:57:15.991Z,21.45
2019-03-31T03:59:46.544Z,21.12
2019-03-31T04:02:17.222Z,18.50
2019-03-31T04:04:47.923Z,19.02
2019-03-31T04:07:18.472Z,19.20
2019-03-31T04:09:49.348Z,20.85
2019-03-31T04:12:20.053Z,21.33
2019-03-31T04:14:50.785Z,22.25
2019-03-31T04:17:21.543Z,22.05
2019-03-31T04:19:52.266Z,23.30
2019-03-31T04:22:22.975Z,22.65
2019-03-31T04:24:53.824Z,23.25
2019-03-31T04:27:24.363Z,24.87
2019-03-31T04:29:55.057Z,24.87
2019-03-31T04:32:25.742Z,24.20
2019-03-31T04:34:56.488Z,22.07
2019-03-31T04:37:27.314Z,22.25
2019-03-31T04:39:58.131Z,20.65
2019-03-31T04:42:28.708Z,20.02
2019-03-31T04:44:59.538Z,21.68
2019-03-31T04:47:30.245Z,23.02
2019-03-31T04:50:00.984Z,22.87
2019-03-31T04:52:34.579Z,23.42
2019-03-31T04:55:05.431Z,24.47
2019-03-31T04:57:35.946Z,25.48
2019-03-31T05:00:06.659Z,24.35
2019-03-31T05:02:37.419Z,23.38
2019-03-31T05:05:08.297Z,23.40
2019-03-31T05:07:39.126Z,25.50
2019-03-31T05:10:09.888Z,22.60
2019-03-31T05:12:40.785Z,22.77
2019-03-31T05:15:11.677Z,22.70
2019-03-31T05:17:42.290Z,22.60
2019-03-31T05:20:13.216Z,22.25
2019-03-31T05:22:44.038Z,23.18
2019-03-31T05:25:14.578Z,22.15
2019-03-31T05:27:45.344Z,23.02
2019-03-31T05:30:16.109Z,23.10
2019-03-31T05:32:46.892Z,23.40
2019-03-31T05:35:17.672Z,24.77
2019-03-31T05:37:51.345Z,27.37
2019-03-31T05:40:20.836Z,24.77
2019-03-31T05:42:51.460Z,26.73
2019-03-31T05:45:22.328Z,24.07
2019-03-31T05:47:53.166Z,23.73
2019-03-31T05:50:23.938Z,24.18
2019-03-31T05:52:54.864Z,22.98
2019-03-31T05:55:25.468Z,24.70
2019-03-31T05:57:56.213Z,22.82
2019-03-31T06:00:47.448Z,21.95
2019-03-31T06:03:17.985Z,21.85
2019-03-31T06:05:48.990Z,19.73
2019-03-31T06:08:20.868Z,18.20
2019-03-31T06:10:51.478Z,18.52
2019-03-31T06:13:22.211Z,18.17
2019-03-31T06:15:53.066Z,17.12
2019-03-31T06:18:23.797Z,17.95
2019-03-31T06:20:54.583Z,18.00
2019-03-31T06:23:25.367Z,18.62
2019-03-31T06:25:55.875Z,18.62
2019-03-31T06:28:26.760Z,19.98
2019-03-31T06:30:57.395Z,20.23
2019-03-31T06:33:27.931Z,22.13
2019-03-31T06:35:58.755Z,21.52
2019-03-31T06:38:29.755Z,21.10
2019-03-31T06:41:03.771Z,21.68
2019-03-31T06:43:34.363Z,20.97
2019-03-31T06:46:04.935Z,21.62
2019-03-31T06:48:35.745Z,22.95
2019-03-31T06:51:06.571Z,20.35
2019-03-31T06:53:37.319Z,20.15
2019-03-31T06:56:08.036Z,21.23
2019-03-31T06:58:38.948Z,21.77
2019-03-31T07:01:09.840Z,21.95
2019-03-31T07:03:40.650Z,21.23
2019-03-31T07:06:11.533Z,25.82
2019-03-31T07:08:42.422Z,21.10
2019-03-31T07:11:13.084Z,20.95
2019-03-31T07:13:43.964Z,20.10
2019-03-31T07:16:14.901Z,18.73
2019-03-31T07:18:45.666Z,18.10
2019-03-31T07:21:16.583Z,18.25
2019-03-31T07:23:47.391Z,19.15
2019-03-31T07:26:18.206Z,18.98
2019-03-31T07:28:48.892Z,19.50
2019-03-31T07:31:19.687Z,20.08
2019-03-31T07:33:50.586Z,20.77
2019-03-31T07:36:21.464Z,19.87
2019-03-31T07:38:52.290Z,20.75
2019-03-31T07:41:23.190Z,21.42
2019-03-31T07:43:54.106Z,21.23
2019-03-31T07:46:25.360Z,21.52
2019-03-31T07:48:56.324Z,19.95
2019-03-31T07:51:27.036Z,20.97
2019-03-31T07:53:57.789Z,20.40
2019-03-31T07:56:28.580Z,21.20
2019-03-31T07:58:59.462Z,20.30
2019-03-31T08:01:30.432Z,20.62
2019-03-31T08:04:01.080Z,19.75
2019-03-31T08:06:31.667Z,19.55
2019-03-31T08:09:02.353Z,19.92
2019-03-31T08:11:33.212Z,19.40
2019-03-31T08:14:03.763Z,20.97
2019-03-31T08:16:34.324Z,21.55
2019-03-31T08:19:04.833Z,20.32
2019-03-31T08:21:35.674Z,20.85
2019-03-31T08:24:06.760Z,20.82
2019-03-31T08:26:37.551Z,19.85
2019-03-31T08:29:08.131Z,20.15
2019-03-31T08:31:39.040Z,20.27
2019-03-31T08:34:09.682Z,20.05
2019-03-31T08:36:40.570Z,18.90
2019-03-31T08:39:11.069Z,19.55
2019-03-31T08:41:41.652Z,18.48
2019-03-31T08:44:12.341Z,19.12
2019-03-31T08:46:42.864Z,17.50
2019-03-31T08:49:13.492Z,19.07
2019-03-31T08:51:44.089Z,19.60
2019-03-31T08:54:14.700Z,19.00
2019-03-31T08:56:45.246Z,17.95
2019-03-31T08:59:15.830Z,17.87
2019-03-31T09:01:46.589Z,18.15
2019-03-31T09:04:20.194Z,18.48
2019-03-31T09:06:50.986Z,17.90
2019-03-31T09:09:21.533Z,18.12
2019-03-31T09:11:52.387Z,18.75
2019-03-31T09:14:22.961Z,18.15
2019-03-31T09:16:53.836Z,18.45
2019-03-31T09:19:24.625Z,18.45
2019-03-31T09:21:55.493Z,18.07
2019-03-31T09:24:26.095Z,17.85
2019-03-31T09:26:57.011Z,18.45
2019-03-31T09:29:27.879Z,17.77
2019-03-31T09:31:58.589Z,17.52
2019-03-31T09:34:29.113Z,17.60
2019-03-31T09:37:00.021Z,18.23
2019-03-31T09:39:31.312Z,17.55
2019-03-31T09:42:02.087Z,17.40
2019-03-31T09:44:32.830Z,17.00
2019-03-31T09:47:09.157Z,17.65
2019-03-31T09:49:40.330Z,18.25
2019-03-31T09:52:11.303Z,17.12
2019-03-31T09:54:41.933Z,17.95
2019-03-31T09:57:12.729Z,17.15
2019-03-31T09:59:43.687Z,17.17
2019-03-31T10:02:14.445Z,16.80
2019-03-31T10:04:45.287Z,17.67
2019-03-31T10:07:15.863Z,16.62
2019-03-31T10:09:46.619Z,16.40
2019-03-31T10:12:17.193Z,15.68
2019-03-31T10:14:47.983Z,17.70
2019-03-31T10:17:18.631Z,16.75
2019-03-31T10:19:49.249Z,17.12
2019-03-31T10:22:20.152Z,16.40
2019-03-31T10:24:50.955Z,16.70
2019-03-31T10:27:21.777Z,16.52
2019-03-31T10:29:52.292Z,16.75
2019-03-31T10:32:23.179Z,17.82
2019-03-31T10:34:54.023Z,15.98
2019-03-31T10:37:24.883Z,16.25
2019-03-31T10:39:55.545Z,15.93
2019-03-31T10:42:26.362Z,16.07
2019-03-31T10:44:59.371Z,16.05
2019-03-31T10:47:29.964Z,16.60
2019-03-31T10:50:00.835Z,15.58
2019-03-31T10:52:31.431Z,15.50
2019-03-31T10:55:02.282Z,15.10
2019-03-31T10:57:33.066Z,15.85
2019-03-31T11:00:03.995Z,15.95
2019-03-31T11:02:34.994Z,16.93
2019-03-31T11:05:05.901Z,16.35
2019-03-31T11:07:36.477Z,15.95
2019-03-31T11:10:07.201Z,15.28
2019-03-31T11:12:37.753Z,15.98
2019-03-31T11:15:09.261Z,15.30
2019-03-31T11:17:40.237Z,15.15
2019-03-31T11:20:10.869Z,14.10
2019-03-31T11:22:46.831Z,14.13
2019-03-31T11:25:21.328Z,14.45
2019-03-31T11:27:49.830Z,13.08
2019-03-31T11:30:20.373Z,11.83
2019-03-31T11:32:50.960Z,11.53
2019-03-31T11:35:21.661Z,11.48
2019-03-31T11:37:52.267Z,12.30
2019-03-31T11:40:22.977Z,11.55
2019-03-31T11:42:57.954Z,12.45
2019-03-31T11:45:28.545Z,11.57
2019-03-31T11:47:59.126Z,12.28
2019-03-31T11:50:29.694Z,11.70
2019-03-31T11:53:00.533Z,11.20
2019-03-31T11:55:31.059Z,11.00
2019-03-31T11:58:01.921Z,11.33
2019-03-31T12:00:34.809Z,11.03
2019-03-31T12:03:05.421Z,11.33
2019-03-31T12:05:36.164Z,11.08
2019-03-31T12:08:06.733Z,12.33
2019-03-31T12:10:37.350Z,12.30
2019-03-31T12:13:08.051Z,10.95
2019-03-31T12:15:38.828Z,11.78
2019-03-31T12:18:09.667Z,10.55
2019-03-31T12:20:40.237Z,10.58
2019-03-31T12:23:11.233Z,12.53
2019-03-31T12:25:42.025Z,11.85
2019-03-31T12:28:12.753Z,12.25
2019-03-31T12:30:43.519Z,11.30
2019-03-31T12:33:14.193Z,11.60
2019-03-31T12:35:44.983Z,10.75
2019-03-31T12:38:15.650Z,9.20
2019-03-31T12:40:46.184Z,9.75
2019-03-31T12:43:16.738Z,10.25
2019-03-31T12:45:47.384Z,10.13
2019-03-31T12:48:19.484Z,10.40
2019-03-31T12:50:50.112Z,10.40
2019-03-31T12:53:20.717Z,10.13
2019-03-31T12:55:59.930Z,9.33
2019-03-31T12:58:24.046Z,9.70
2019-03-31T13:00:54.800Z,10.00
2019-03-31T13:03:25.607Z,10.40
2019-03-31T13:05:56.171Z,9.68
2019-03-31T13:08:27.030Z,9.05
2019-03-31T13:10:57.547Z,9.55
2019-03-31T13:13:28.136Z,8.25
2019-03-31T13:15:58.722Z,8.20
2019-03-31T13:18:31.365Z,8.53
2019-03-31T13:21:02.024Z,9.28
2019-03-31T13:23:33.105Z,9.20
2019-03-31T13:26:03.761Z,8.75
2019-03-31T13:28:34.309Z,9.08
2019-03-31T13:31:04.839Z,8.83
2019-03-31T13:33:35.355Z,10.23
2019-03-31T13:36:06.060Z,9.83
2019-03-31T13:38:37.710Z,9.63
2019-03-31T13:41:08.292Z,8.83
2019-03-31T13:43:38.807Z,9.58
2019-03-31T13:46:09.335Z,9.10
2019-03-31T13:48:39.904Z,8.50
2019-03-31T13:51:11.525Z,8.28
2019-03-31T13:53:42.152Z,8.95
2019-03-31T13:56:13.337Z,7.90
2019-03-31T13:58:52.569Z,8.05
2019-03-31T14:01:17.107Z,8.10
2019-03-31T14:03:47.902Z,8.43
2019-03-31T14:06:18.695Z,8.40
2019-03-31T14:08:49.506Z,8.95
2019-03-31T14:11:21.724Z,9.73
2019-03-31T14:13:55.784Z,8.90
2019-03-31T14:16:30.414Z,8.78
2019-03-31T14:19:01.064Z,7.83
2019-03-31T14:21:31.879Z,8.85
2019-03-31T14:24:02.487Z,9.20
2019-03-31T14:26:33.228Z,9.08
2019-03-31T14:29:04.113Z,8.63
2019-03-31T14:31:34.826Z,8.83
2019-03-31T14:34:05.431Z,8.25
2019-03-31T14:36:36.089Z,8.75
2019-03-31T14:39:09.180Z,8.45
2019-03-31T14:41:41.158Z,8.98
2019-03-31T14:44:11.964Z,8.60
2019-03-31T14:46:42.802Z,7.83
2019-03-31T14:49:13.422Z,7.55
2019-03-31T14:51:44.250Z,8.10
2019-03-31T14:54:15.061Z,7.97
2019-03-31T14:56:45.611Z,6.87
2019-03-31T14:59:16.380Z,7.30
2019-03-31T15:01:46.993Z,8.65
2019-03-31T15:04:17.633Z,7.67
2019-03-31T15:06:48.340Z,7.55
2019-03-31T15:09:19.105Z,7.83
2019-03-31T15:11:49.938Z,7.87
2019-03-31T15:14:20.672Z,7.05
2019-03-31T15:16:51.353Z,7.45
2019-03-31T15:19:22.249Z,8.00
2019-03-31T15:21:53.052Z,8.13
2019-03-31T15:24:23.970Z,7.75
2019-03-31T15:26:54.816Z,9.08
2019-03-31T15:29:25.597Z,9.03
2019-03-31T15:31:56.344Z,8.18
2019-03-31T15:34:27.114Z,9.18
2019-03-31T15:36:57.905Z,8.55
2019-03-31T15:39:28.794Z,8.78
2019-03-31T15:41:59.486Z,8.58
2019-03-31T15:44:30.403Z,8.50
2019-03-31T15:47:01.143Z,9.58
2019-03-31T15:49:31.964Z,9.85
2019-03-31T15:52:02.724Z,8.05
2019-03-31T15:54:33.422Z,9.85
2019-03-31T15:57:04.175Z,8.48
2019-03-31T15:59:35.072Z,9.78
2019-03-31T16:02:05.861Z,8.68
2019-03-31T16:04:36.582Z,9.25
2019-03-31T16:07:07.479Z,9.43
2019-03-31T16:09:37.734Z,8.65
2019-03-31T16:12:08.080Z,9.53
2019-03-31T16:14:38.465Z,9.25
2019-03-31T16:17:08.689Z,9.10
2019-03-31T16:19:38.971Z,9.15
2019-03-31T16:22:09.235Z,10.38
2019-03-31T16:24:43.082Z,10.50
2019-03-31T16:27:13.460Z,9.08
2019-03-31T16:29:43.729Z,9.93
2019-03-31T16:32:14.101Z,10.60
2019-03-31T16:34:46.060Z,10.00
2019-03-31T16:37:16.065Z,10.43
2019-03-31T16:39:46.030Z,9.70
2019-03-31T16:42:16.304Z,10.45
2019-03-31T16:44:57.607Z,10.65
2019-03-31T16:47:18.328Z,8.65
2019-03-31T16:49:48.339Z,10.55
2019-03-31T16:52:18.391Z,10.80
2019-03-31T16:54:48.638Z,10.63
2019-03-31T16:57:18.838Z,10.25
2019-03-31T16:59:49.118Z,10.95
2019-03-31T17:02:19.273Z,11.55
2019-03-31T17:04:49.514Z,11.28
2019-03-31T17:07:19.823Z,12.15
2019-03-31T17:09:51.716Z,11.78
2019-03-31T17:12:22.144Z,11.25
2019-03-31T17:14:52.255Z,10.18
2019-03-31T17:17:22.409Z,9.58
2019-03-31T17:19:52.620Z,10.25
2019-03-31T17:22:22.829Z,12.37
2019-03-31T17:24:53.066Z,13.38
2019-03-31T17:27:23.292Z,11.00
2019-03-31T17:29:53.513Z,10.60
2019-03-31T17:32:23.781Z,10.05
2019-03-31T17:34:54.048Z,9.20
2019-03-31T17:37:24.303Z,8.38
2019-03-31T17:40:05.311Z,8.95
2019-03-31T17:42:26.181Z,9.18
2019-03-31T17:44:56.191Z,8.95
2019-03-31T17:47:26.169Z,9.28
2019-03-31T17:49:56.195Z,8.23
2019-03-31T17:52:26.155Z,9.00
2019-03-31T17:54:56.060Z,9.45
2019-03-31T17:57:26.067Z,9.23
2019-03-31T17:59:56.359Z,9.73
2019-03-31T18:02:26.699Z,9.78
2019-03-31T18:04:56.788Z,9.48
2019-03-31T18:07:26.960Z,9.73
2019-03-31T18:09:57.172Z,9.58
2019-03-31T18:12:27.567Z,9.78
2019-03-31T18:14:57.945Z,9.95
2019-03-31T18:17:27.938Z,10.10
2019-03-31T18:19:58.602Z,11.45
2019-03-31T18:22:28.659Z,12.07
2019-03-31T18:24:58.919Z,11.40
2019-03-31T18:27:29.248Z,10.43
2019-03-31T18:29:59.247Z,10.35
2019-03-31T18:32:29.518Z,10.60
2019-03-31T18:34:59.489Z,10.65
2019-03-31T18:37:29.664Z,10.72
2019-03-31T18:39:59.945Z,10.90
2019-03-31T18:42:29.967Z,11.15
2019-03-31T18:44:59.935Z,10.60
2019-03-31T18:47:29.989Z,10.85
2019-03-31T18:49:59.977Z,11.68
2019-03-31T18:52:29.950Z,13.78
2019-03-31T18:55:10.023Z,13.35
2019-03-31T18:58:10.857Z,13.13
2019-03-31T19:00:56.809Z,13.68
2019-03-31T19:03:33.610Z,13.55
2019-03-31T19:06:21.555Z,9.30
2019-03-31T19:09:16.373Z,13.72
2019-03-31T19:12:14.463Z,12.53
2019-03-31T19:15:01.850Z,13.33
2019-03-31T19:18:03.256Z,13.50
2019-03-31T19:21:10.546Z,11.45
2019-03-31T19:23:48.877Z,13.00
2019-03-31T19:26:48.535Z,11.80
2019-03-31T19:29:36.986Z,11.35
2019-03-31T19:32:24.708Z,12.35
2019-03-31T19:35:25.770Z,8.33
2019-03-31T19:38:16.963Z,10.63
2019-03-31T19:41:06.058Z,10.58
2019-03-31T19:43:57.983Z,9.55
2019-03-31T19:47:02.245Z,10.30
2019-03-31T19:49:54.187Z,8.75
2019-03-31T19:52:49.011Z,8.50
2019-03-31T19:55:38.991Z,9.50
2019-03-31T19:58:33.407Z,8.73
2019-03-31T20:01:22.554Z,9.85
2019-03-31T20:04:09.998Z,9.38
2019-03-31T20:07:02.216Z,8.57
2019-03-31T20:09:51.100Z,8.53
2019-03-31T20:12:32.073Z,9.45
2019-03-31T20:15:23.806Z,9.33
2019-03-31T20:18:21.875Z,9.00
2019-03-31T20:21:31.059Z,46.57
2019-03-31T20:24:13.215Z,43.95
2019-03-31T20:27:20.465Z,35.92
2019-03-31T20:30:05.610Z,15.85
2019-03-31T20:32:51.266Z,10.55
2019-03-31T20:35:52.546Z,9.45
2019-03-31T20:38:44.471Z,9.75
2019-03-31T20:41:25.862Z,9.68
2019-03-31T20:43:55.982Z,10.15
2019-03-31T20:46:26.212Z,9.48
2019-03-31T20:48:56.211Z,9.30
2019-03-31T20:51:26.223Z,9.48
2019-03-31T20:53:56.233Z,8.40
2019-03-31T20:56:26.705Z,8.65
2019-03-31T20:58:56.746Z,8.80
2019-03-31T21:01:27.072Z,9.15
2019-03-31T21:03:57.250Z,9.70
2019-03-31T21:06:27.198Z,11.05
2019-03-31T21:08:57.253Z,10.05
2019-03-31T21:11:27.233Z,13.35
2019-03-31T21:13:57.407Z,10.60
2019-03-31T21:16:30.855Z,9.53
2019-03-31T21:19:00.875Z,10.03
2019-03-31T21:21:31.118Z,10.15
2019-03-31T21:24:01.273Z,9.75
2019-03-31T21:26:31.479Z,9.13
2019-03-31T21:29:02.833Z,8.75
2019-03-31T21:31:33.237Z,8.20
2019-03-31T21:34:03.296Z,8.30
2019-03-31T21:36:33.391Z,7.83
2019-03-31T21:39:03.988Z,9.03
2019-03-31T21:41:34.045Z,11.12
2019-03-31T21:44:04.353Z,9.35
2019-03-31T21:46:34.722Z,9.10
2019-03-31T21:49:04.992Z,9.05
2019-03-31T21:51:35.190Z,8.98
2019-03-31T21:54:05.225Z,9.60
2019-03-31T21:56:35.346Z,9.60
2019-03-31T21:59:05.625Z,9.98
2019-03-31T22:01:35.976Z,8.93
2019-03-31T22:04:06.000Z,9.50
2019-03-31T22:06:35.977Z,9.93
2019-03-31T22:09:09.467Z,10.20
2019-03-31T22:11:39.793Z,10.25
2019-03-31T22:14:10.611Z,9.60
2019-03-31T22:16:41.166Z,10.15
2019-03-31T22:19:11.474Z,10.30
2019-03-31T22:21:41.452Z,10.23
2019-03-31T22:24:11.696Z,10.68
2019-03-31T22:26:41.888Z,10.80
2019-03-31T22:29:12.165Z,9.98
2019-03-31T22:31:42.471Z,10.45
2019-03-31T22:34:12.500Z,10.08
2019-03-31T22:36:42.718Z,10.00
2019-03-31T22:39:12.901Z,9.45
2019-03-31T22:41:43.022Z,10.20
2019-03-31T22:44:13.214Z,10.68
2019-03-31T22:46:53.679Z,10.30
2019-03-31T22:49:15.438Z,9.70
2019-03-31T22:51:45.609Z,10.15
2019-03-31T22:54:15.674Z,9.55
2019-03-31T22:56:45.935Z,9.50
2019-03-31T22:59:16.084Z,9.85
2019-03-31T23:01:46.376Z,10.93
2019-03-31T23:04:16.363Z,10.70
2019-03-31T23:06:46.659Z,9.70
2019-03-31T23:09:16.910Z,11.40
2019-03-31T23:11:47.266Z,10.53
2019-03-31T23:14:17.606Z,10.60
2019-03-31T23:16:47.859Z,10.72
2019-03-31T23:19:18.013Z,10.80
2019-03-31T23:21:48.197Z,11.10
2019-03-31T23:24:18.613Z,11.10
2019-03-31T23:26:48.766Z,11.55
2019-03-31T23:29:19.965Z,11.18
2019-03-31T23:31:50.300Z,11.05
2019-03-31T23:34:20.567Z,11.68
2019-03-31T23:36:50.807Z,12.65
2019-03-31T23:39:21.075Z,11.60
2019-03-31T23:41:51.481Z,11.28
2019-03-31T23:44:21.481Z,11.25
2019-03-31T23:46:51.824Z,12.25
2019-03-31T23:49:21.807Z,12.15
2019-03-31T23:51:52.059Z,12.53
2019-03-31T23:54:22.096Z,12.88
2019-03-31T23:56:52.170Z,13.32
2019-03-31T23:59:22.530Z,13.78
